createdAt,value
2018-10-02T00:00:34.857Z,1014.17
2018-10-02T00:01:34.846Z,1014.18
2018-10-02T00:02:34.842Z,1014.20
2018-10-02T00:03:34.833Z,1014.12
2018-10-02T00:04:34.869Z,1014.15
2018-10-02T00:05:34.815Z,1014.13
2018-10-02T00:06:34.835Z,1014.11
2018-10-02T00:07:34.801Z,1014.08
2018-10-02T00:08:34.796Z,1014.11
2018-10-02T00:09:34.788Z,1014.13
2018-10-02T00:10:34.783Z,1014.08
2018-10-02T00:11:34.771Z,1014.07
2018-10-02T00:12:34.766Z,1014.04
2018-10-02T00:13:34.756Z,1014.07
2018-10-02T00:14:34.751Z,1014.05
2018-10-02T00:15:34.743Z,1014.01
2018-10-02T00:16:34.738Z,1014.00
2018-10-02T00:17:34.726Z,1014.01
2018-10-02T00:18:34.723Z,1014.00
2018-10-02T00:19:34.712Z,1014.03
2018-10-02T00:20:34.708Z,1013.99
2018-10-02T00:21:34.697Z,1013.98
2018-10-02T00:22:34.691Z,1013.99
2018-10-02T00:23:34.682Z,1013.97
2018-10-02T00:24:34.677Z,1014.00
2018-10-02T00:25:34.668Z,1013.96
2018-10-02T00:26:34.661Z,1013.93
2018-10-02T00:27:34.651Z,1013.92
2018-10-02T00:28:34.647Z,1013.93
2018-10-02T00:29:34.636Z,1013.98
2018-10-02T00:30:34.632Z,1014.00
2018-10-02T00:31:34.707Z,1013.97
2018-10-02T00:32:34.618Z,1013.97
2018-10-02T00:33:34.610Z,1013.98
2018-10-02T00:34:34.601Z,1013.94
2018-10-02T00:35:34.594Z,1013.90
2018-10-02T00:36:34.597Z,1013.91
2018-10-02T00:37:34.576Z,1013.89
2018-10-02T00:38:34.571Z,1013.85
2018-10-02T00:39:34.562Z,1013.82
2018-10-02T00:40:34.556Z,1013.83
2018-10-02T00:41:34.546Z,1013.80
2018-10-02T00:42:34.590Z,1013.84
2018-10-02T00:43:34.533Z,1013.90
2018-10-02T00:44:34.540Z,1013.90
2018-10-02T00:45:34.516Z,1013.97
2018-10-02T00:46:34.511Z,1013.96
2018-10-02T00:47:34.502Z,1013.97
2018-10-02T00:48:34.496Z,1014.00
2018-10-02T00:49:34.486Z,1013.97
2018-10-02T00:50:34.481Z,1014.00
2018-10-02T00:51:34.471Z,1014.02
2018-10-02T00:52:34.468Z,1014.00
2018-10-02T00:53:34.457Z,1014.05
2018-10-02T00:54:34.451Z,1014.05
2018-10-02T00:55:34.441Z,1014.01
2018-10-02T00:56:34.459Z,1013.97
2018-10-02T00:57:34.427Z,1013.97
2018-10-02T00:58:34.422Z,1013.93
2018-10-02T00:59:34.412Z,1013.94
2018-10-02T01:00:34.408Z,1013.94
2018-10-02T01:01:34.397Z,1013.90
2018-10-02T01:02:34.392Z,1013.90
2018-10-02T01:03:34.383Z,1013.90
2018-10-02T01:04:34.377Z,1013.93
2018-10-02T01:05:34.368Z,1013.93
2018-10-02T01:06:34.363Z,1013.96
2018-10-02T01:07:34.355Z,1013.96
2018-10-02T01:08:34.348Z,1013.94
2018-10-02T01:09:34.338Z,1013.97
2018-10-02T01:10:34.333Z,1013.97
2018-10-02T01:11:34.324Z,1013.96
2018-10-02T01:12:34.318Z,1013.99
2018-10-02T01:13:34.310Z,1013.96
2018-10-02T01:14:34.303Z,1013.91
2018-10-02T01:15:34.294Z,1013.89
2018-10-02T01:16:34.289Z,1013.93
2018-10-02T01:17:34.278Z,1013.90
2018-10-02T01:18:34.273Z,1013.90
2018-10-02T01:19:34.264Z,1013.90
2018-10-02T01:20:34.259Z,1013.83
2018-10-02T01:21:34.249Z,1013.75
2018-10-02T01:22:34.252Z,1013.72
2018-10-02T01:23:34.234Z,1013.73
2018-10-02T01:24:34.229Z,1013.74
2018-10-02T01:25:34.219Z,1013.66
2018-10-02T01:26:34.214Z,1013.66
2018-10-02T01:27:34.204Z,1013.63
2018-10-02T01:28:34.227Z,1013.64
2018-10-02T01:29:34.190Z,1013.68
2018-10-02T01:30:34.186Z,1013.70
2018-10-02T01:31:34.175Z,1013.65
2018-10-02T01:32:34.174Z,1013.63
2018-10-02T01:33:34.161Z,1013.66
2018-10-02T01:34:34.155Z,1013.64
2018-10-02T01:35:34.156Z,1013.69
2018-10-02T01:36:34.157Z,1013.68
2018-10-02T01:37:34.130Z,1013.65
2018-10-02T01:38:34.131Z,1013.64
2018-10-02T01:39:34.120Z,1013.65
2018-10-02T01:40:34.112Z,1013.59
2018-10-02T01:41:34.101Z,1013.60
2018-10-02T01:42:34.101Z,1013.57
2018-10-02T01:43:34.100Z,1013.55
2018-10-02T01:44:34.083Z,1013.53
2018-10-02T01:45:34.073Z,1013.53
2018-10-02T01:46:34.068Z,1013.53
2018-10-02T01:47:34.309Z,1013.49
2018-10-02T01:48:34.065Z,1013.54
2018-10-02T01:49:34.045Z,1013.49
2018-10-02T01:50:34.038Z,1013.51
2018-10-02T01:51:34.029Z,1013.56
2018-10-02T01:52:34.024Z,1013.55
2018-10-02T01:53:34.014Z,1013.54
2018-10-02T01:54:34.010Z,1013.56
2018-10-02T01:55:34.003Z,1013.57
2018-10-02T01:56:33.995Z,1013.58
2018-10-02T01:57:33.984Z,1013.57
2018-10-02T01:58:33.980Z,1013.52
2018-10-02T01:59:33.971Z,1013.50
2018-10-02T02:00:33.966Z,1013.52
2018-10-02T02:01:33.956Z,1013.57
2018-10-02T02:02:33.951Z,1013.56
2018-10-02T02:03:33.952Z,1013.61
2018-10-02T02:04:33.940Z,1013.62
2018-10-02T02:05:33.928Z,1013.62
2018-10-02T02:06:33.927Z,1013.53
2018-10-02T02:07:33.916Z,1013.49
2018-10-02T02:08:33.908Z,1013.48
2018-10-02T02:09:33.898Z,1013.47
2018-10-02T02:10:33.896Z,1013.47
2018-10-02T02:11:33.885Z,1013.43
2018-10-02T02:12:33.880Z,1013.44
2018-10-02T02:13:33.891Z,1013.41
2018-10-02T02:14:33.865Z,1013.43
2018-10-02T02:15:33.856Z,1013.36
2018-10-02T02:16:33.851Z,1013.36
2018-10-02T02:17:33.843Z,1013.35
2018-10-02T02:18:33.836Z,1013.36
2018-10-02T02:19:33.834Z,1013.32
2018-10-02T02:20:33.822Z,1013.27
2018-10-02T02:21:33.815Z,1013.24
2018-10-02T02:22:33.811Z,1013.21
2018-10-02T02:23:33.798Z,1013.23
2018-10-02T02:24:33.798Z,1013.20
2018-10-02T02:25:33.787Z,1013.16
2018-10-02T02:26:33.778Z,1013.16
2018-10-02T02:27:33.768Z,1013.16
2018-10-02T02:28:33.764Z,1013.13
2018-10-02T02:29:33.755Z,1013.10
2018-10-02T02:30:33.749Z,1013.11
2018-10-02T02:31:33.741Z,1013.10
2018-10-02T02:32:33.735Z,1013.05
2018-10-02T02:33:33.725Z,1013.08
2018-10-02T02:34:33.720Z,1013.05
2018-10-02T02:35:33.731Z,1013.02
2018-10-02T02:36:33.706Z,1013.01
2018-10-02T02:37:33.699Z,1013.00
2018-10-02T02:38:33.691Z,1013.02
2018-10-02T02:39:33.682Z,1013.01
2018-10-02T02:40:33.677Z,1013.00
2018-10-02T02:41:33.667Z,1013.04
2018-10-02T02:42:33.663Z,1013.02
2018-10-02T02:43:33.653Z,1013.02
2018-10-02T02:44:33.648Z,1012.99
2018-10-02T02:45:33.637Z,1012.99
2018-10-02T02:46:33.633Z,1012.96
2018-10-02T02:47:33.624Z,1012.97
2018-10-02T02:48:33.619Z,1012.98
2018-10-02T02:49:33.609Z,1013.02
2018-10-02T02:50:33.605Z,1012.98
2018-10-02T02:51:33.594Z,1012.98
2018-10-02T02:52:33.616Z,1012.94
2018-10-02T02:53:33.834Z,1012.93
2018-10-02T02:54:33.576Z,1012.91
2018-10-02T02:55:33.566Z,1012.92
2018-10-02T02:56:33.562Z,1012.93
2018-10-02T02:57:33.551Z,1012.89
2018-10-02T02:58:33.567Z,1012.82
2018-10-02T02:59:33.540Z,1012.78
2018-10-02T03:00:33.530Z,1012.72
2018-10-02T03:01:33.524Z,1012.74
2018-10-02T03:02:33.516Z,1012.76
2018-10-02T03:03:33.513Z,1012.75
2018-10-02T03:04:33.502Z,1012.74
2018-10-02T03:05:33.495Z,1012.68
2018-10-02T03:06:33.487Z,1012.68
2018-10-02T03:07:33.481Z,1012.68
2018-10-02T03:08:33.479Z,1012.65
2018-10-02T03:09:33.467Z,1012.65
2018-10-02T03:10:33.457Z,1012.58
2018-10-02T03:11:33.452Z,1012.56
2018-10-02T03:12:33.443Z,1012.56
2018-10-02T03:13:33.437Z,1012.54
2018-10-02T03:14:33.430Z,1012.58
2018-10-02T03:15:33.422Z,1012.54
2018-10-02T03:16:33.414Z,1012.50
2018-10-02T03:17:33.408Z,1012.46
2018-10-02T03:18:33.398Z,1012.38
2018-10-02T03:19:33.399Z,1012.39
2018-10-02T03:20:33.385Z,1012.40
2018-10-02T03:21:33.382Z,1012.38
2018-10-02T03:22:33.371Z,1012.41
2018-10-02T03:23:33.616Z,1012.43
2018-10-02T03:24:33.356Z,1012.35
2018-10-02T03:25:33.350Z,1012.29
2018-10-02T03:26:33.340Z,1012.31
2018-10-02T03:27:33.337Z,1012.30
2018-10-02T03:28:33.330Z,1012.29
2018-10-02T03:29:33.321Z,1012.28
2018-10-02T03:30:33.311Z,1012.24
2018-10-02T03:31:33.307Z,1012.19
2018-10-02T03:32:33.297Z,1012.24
2018-10-02T03:33:33.292Z,1012.26
2018-10-02T03:34:33.290Z,1012.25
2018-10-02T03:35:33.286Z,1012.29
2018-10-02T03:36:33.285Z,1012.25
2018-10-02T03:37:33.265Z,1012.22
2018-10-02T03:38:33.254Z,1012.16
2018-10-02T03:39:33.272Z,1012.14
2018-10-02T03:40:33.243Z,1012.11
2018-10-02T03:41:33.235Z,1012.15
2018-10-02T03:42:33.231Z,1012.18
2018-10-02T03:43:33.232Z,1012.19
2018-10-02T03:44:33.213Z,1012.21
2018-10-02T03:45:33.206Z,1012.21
2018-10-02T03:46:33.199Z,1012.16
2018-10-02T03:47:33.194Z,1012.15
2018-10-02T03:48:33.184Z,1012.10
2018-10-02T03:49:33.178Z,1012.05
2018-10-02T03:50:33.170Z,1012.00
2018-10-02T03:51:33.164Z,1012.01
2018-10-02T03:52:33.156Z,1012.00
2018-10-02T03:53:33.400Z,1011.94
2018-10-02T03:54:33.143Z,1011.94
2018-10-02T03:55:33.183Z,1011.97
2018-10-02T03:56:33.127Z,1012.01
2018-10-02T03:57:33.122Z,1012.01
2018-10-02T03:58:33.113Z,1011.95
2018-10-02T03:59:33.108Z,1011.93
2018-10-02T04:00:33.098Z,1011.95
2018-10-02T04:01:33.093Z,1011.97
2018-10-02T04:02:33.090Z,1011.92
2018-10-02T04:03:33.097Z,1011.91
2018-10-02T04:04:33.070Z,1011.88
2018-10-02T04:05:33.066Z,1011.84
2018-10-02T04:06:33.056Z,1011.85
2018-10-02T04:07:33.051Z,1011.82
2018-10-02T04:08:33.042Z,1011.80
2018-10-02T04:09:33.037Z,1011.79
2018-10-02T04:10:33.028Z,1011.76
2018-10-02T04:11:33.025Z,1011.77
2018-10-02T04:12:33.024Z,1011.79
2018-10-02T04:13:33.015Z,1011.77
2018-10-02T04:14:33.000Z,1011.70
2018-10-02T04:15:32.995Z,1011.66
2018-10-02T04:16:32.986Z,1011.61
2018-10-02T04:17:32.981Z,1011.55
2018-10-02T04:18:32.973Z,1011.51
2018-10-02T04:19:32.967Z,1011.46
2018-10-02T04:20:33.009Z,1011.42
2018-10-02T04:21:32.952Z,1011.47
2018-10-02T04:22:32.944Z,1011.45
2018-10-02T04:23:32.939Z,1011.49
2018-10-02T04:24:32.930Z,1011.49
2018-10-02T04:25:32.925Z,1011.54
2018-10-02T04:26:32.916Z,1011.57
2018-10-02T04:27:32.915Z,1011.56
2018-10-02T04:28:32.958Z,1011.58
2018-10-02T04:29:32.897Z,1011.61
2018-10-02T04:30:32.888Z,1011.59
2018-10-02T04:31:32.883Z,1011.62
2018-10-02T04:32:32.874Z,1011.50
2018-10-02T04:33:32.909Z,1011.57
2018-10-02T04:34:32.861Z,1011.57
2018-10-02T04:35:32.855Z,1011.49
2018-10-02T04:36:32.847Z,1011.49
2018-10-02T04:37:32.841Z,1011.40
2018-10-02T04:38:32.830Z,1011.36
2018-10-02T04:39:32.919Z,1011.33
2018-10-02T04:40:32.818Z,1011.39
2018-10-02T04:41:32.812Z,1011.42
2018-10-02T04:42:32.804Z,1011.45
2018-10-02T04:43:32.799Z,1011.45
2018-10-02T04:44:32.790Z,1011.44
2018-10-02T04:45:32.790Z,1011.47
2018-10-02T04:46:32.776Z,1011.47
2018-10-02T04:47:32.772Z,1011.44
2018-10-02T04:48:32.762Z,1011.43
2018-10-02T04:49:32.757Z,1011.44
2018-10-02T04:50:32.748Z,1011.38
2018-10-02T04:51:32.744Z,1011.42
2018-10-02T04:52:32.736Z,1011.34
2018-10-02T04:53:32.729Z,1011.37
2018-10-02T04:54:32.721Z,1011.37
2018-10-02T04:55:32.717Z,1011.37
2018-10-02T04:56:32.706Z,1011.36
2018-10-02T04:57:32.702Z,1011.30
2018-10-02T04:58:32.694Z,1011.30
2018-10-02T04:59:32.939Z,1011.26
2018-10-02T05:00:32.680Z,1011.20
2018-10-02T05:01:32.679Z,1011.18
2018-10-02T05:02:32.670Z,1011.17
2018-10-02T05:03:32.662Z,1011.13
2018-10-02T05:04:32.654Z,1011.20
2018-10-02T05:05:32.646Z,1011.22
2018-10-02T05:06:32.638Z,1011.28
2018-10-02T05:07:32.634Z,1011.25
2018-10-02T05:08:32.666Z,1011.27
2018-10-02T05:09:32.619Z,1011.24
2018-10-02T05:10:32.610Z,1011.28
2018-10-02T05:11:32.606Z,1011.23
2018-10-02T05:12:32.597Z,1011.25
2018-10-02T05:13:32.594Z,1011.23
2018-10-02T05:14:32.582Z,1011.24
2018-10-02T05:15:32.577Z,1011.21
2018-10-02T05:16:32.568Z,1011.20
2018-10-02T05:17:32.562Z,1011.20
2018-10-02T05:18:32.553Z,1011.22
2018-10-02T05:19:32.548Z,1011.18
2018-10-02T05:20:32.600Z,1011.21
2018-10-02T05:21:32.535Z,1011.15
2018-10-02T05:22:32.526Z,1011.13
2018-10-02T05:23:32.520Z,1011.14
2018-10-02T05:24:32.511Z,1011.15
2018-10-02T05:25:32.505Z,1011.13
2018-10-02T05:26:32.500Z,1011.08
2018-10-02T05:27:32.549Z,1011.09
2018-10-02T05:28:32.485Z,1011.09
2018-10-02T05:29:32.727Z,1011.10
2018-10-02T05:30:32.467Z,1011.10
2018-10-02T05:31:32.462Z,1011.08
2018-10-02T05:32:32.454Z,1011.11
2018-10-02T05:33:32.453Z,1011.08
2018-10-02T05:34:32.438Z,1011.05
2018-10-02T05:35:32.566Z,1011.09
2018-10-02T05:36:32.425Z,1011.13
2018-10-02T05:37:32.440Z,1011.09
2018-10-02T05:38:32.422Z,1011.04
2018-10-02T05:39:32.409Z,1011.03
2018-10-02T05:40:32.395Z,1011.01
2018-10-02T05:41:32.390Z,1010.98
2018-10-02T05:42:32.384Z,1010.96
2018-10-02T05:43:32.378Z,1010.95
2018-10-02T05:44:32.369Z,1010.98
2018-10-02T05:45:32.368Z,1010.96
2018-10-02T05:46:32.367Z,1010.99
2018-10-02T05:47:32.347Z,1010.94
2018-10-02T05:48:32.337Z,1010.95
2018-10-02T05:49:32.330Z,1010.97
2018-10-02T05:50:32.323Z,1010.90
2018-10-02T05:51:32.315Z,1010.94
2018-10-02T05:52:32.306Z,1010.93
2018-10-02T05:53:32.300Z,1010.97
2018-10-02T05:54:32.292Z,1010.92
2018-10-02T05:55:32.286Z,1010.90
2018-10-02T05:56:32.277Z,1010.92
2018-10-02T05:57:32.270Z,1010.89
2018-10-02T05:58:32.293Z,1010.92
2018-10-02T05:59:32.256Z,1010.86
2018-10-02T06:00:32.247Z,1010.88
2018-10-02T06:01:32.241Z,1010.87
2018-10-02T06:02:32.232Z,1010.86
2018-10-02T06:03:32.225Z,1010.81
2018-10-02T06:04:32.217Z,1010.79
2018-10-02T06:05:32.211Z,1010.79
2018-10-02T06:06:32.200Z,1010.82
2018-10-02T06:07:32.198Z,1010.80
2018-10-02T06:08:32.186Z,1010.80
2018-10-02T06:09:32.180Z,1010.79
2018-10-02T06:10:32.172Z,1010.82
2018-10-02T06:11:32.164Z,1010.77
2018-10-02T06:12:32.155Z,1010.74
2018-10-02T06:13:32.152Z,1010.74
2018-10-02T06:14:32.140Z,1010.70
2018-10-02T06:15:32.136Z,1010.70
2018-10-02T06:16:32.125Z,1010.68
2018-10-02T06:17:32.119Z,1010.67
2018-10-02T06:18:32.113Z,1010.66
2018-10-02T06:19:32.103Z,1010.67
2018-10-02T06:20:32.094Z,1010.68
2018-10-02T06:21:32.088Z,1010.67
2018-10-02T06:22:32.079Z,1010.60
2018-10-02T06:23:32.073Z,1010.66
2018-10-02T06:24:32.067Z,1010.59
2018-10-02T06:25:32.057Z,1010.55
2018-10-02T06:26:32.053Z,1010.43
2018-10-02T06:27:32.042Z,1010.41
2018-10-02T06:28:32.035Z,1010.34
2018-10-02T06:29:32.027Z,1010.30
2018-10-02T06:30:32.018Z,1010.33
2018-10-02T06:35:32.283Z,1010.34
2018-10-02T06:36:31.973Z,1010.30
2018-10-02T06:37:31.967Z,1010.28
2018-10-02T06:38:31.995Z,1010.24
2018-10-02T06:39:31.953Z,1010.22
2018-10-02T06:40:31.949Z,1010.23
2018-10-02T06:41:31.938Z,1010.20
2018-10-02T06:42:31.929Z,1010.23
2018-10-02T06:43:31.931Z,1010.16
2018-10-02T06:44:31.973Z,1010.13
2018-10-02T06:45:31.910Z,1010.12
2018-10-02T06:46:31.900Z,1010.19
2018-10-02T06:47:31.892Z,1010.16
2018-10-02T06:48:31.884Z,1010.23
2018-10-02T06:49:31.877Z,1010.26
2018-10-02T06:50:31.930Z,1010.28
2018-10-02T06:51:31.977Z,1010.25
2018-10-02T06:52:32.290Z,1010.23
2018-10-02T06:53:31.848Z,1010.21
2018-10-02T06:54:31.837Z,1010.17
2018-10-02T06:55:31.832Z,1010.16
2018-10-02T06:56:31.889Z,1010.14
2018-10-02T06:57:31.816Z,1010.08
2018-10-02T06:58:31.807Z,1010.11
2018-10-02T06:59:31.802Z,1010.14
2018-10-02T07:00:31.898Z,1010.09
2018-10-02T07:01:31.786Z,1010.07
2018-10-02T07:02:31.789Z,1010.13
2018-10-02T07:03:31.772Z,1010.18
2018-10-02T07:04:31.765Z,1010.19
2018-10-02T07:05:31.756Z,1010.13
2018-10-02T07:06:31.794Z,1010.14
2018-10-02T07:07:31.741Z,1010.12
2018-10-02T07:08:31.764Z,1010.04
2018-10-02T07:09:31.726Z,1009.97
2018-10-02T07:10:31.716Z,1009.96
2018-10-02T07:11:31.712Z,1009.98
2018-10-02T07:12:31.724Z,1009.92
2018-10-02T07:13:31.696Z,1009.85
2018-10-02T07:14:31.716Z,1009.87
2018-10-02T07:15:31.681Z,1009.85
2018-10-02T07:16:31.682Z,1009.89
2018-10-02T07:17:31.718Z,1009.94
2018-10-02T07:18:31.659Z,1009.89
2018-10-02T07:19:31.651Z,1009.94
2018-10-02T07:20:31.695Z,1009.99
2018-10-02T07:21:31.634Z,1010.05
2018-10-02T07:22:31.629Z,1010.01
2018-10-02T07:23:31.620Z,1009.96
2018-10-02T07:24:31.616Z,1009.96
2018-10-02T07:25:31.605Z,1009.93
2018-10-02T07:26:31.642Z,1009.90
2018-10-02T07:27:31.758Z,1009.92
2018-10-02T07:28:31.607Z,1009.86
2018-10-02T07:29:31.575Z,1009.90
2018-10-02T07:30:31.653Z,1009.80
2018-10-02T07:31:31.560Z,1009.85
2018-10-02T07:32:31.631Z,1009.79
2018-10-02T07:33:31.545Z,1009.81
2018-10-02T07:34:31.550Z,1009.83
2018-10-02T07:35:31.547Z,1009.84
2018-10-02T07:36:31.622Z,1009.76
2018-10-02T07:37:31.516Z,1009.66
2018-10-02T07:38:31.544Z,1009.69
2018-10-02T07:39:31.502Z,1009.66
2018-10-02T07:40:31.500Z,1009.66
2018-10-02T07:41:31.526Z,1009.66
2018-10-02T07:42:31.530Z,1009.74
2018-10-02T07:43:31.471Z,1009.68
2018-10-02T07:44:31.492Z,1009.65
2018-10-02T07:45:31.457Z,1009.58
2018-10-02T07:46:31.452Z,1009.63
2018-10-02T07:47:31.501Z,1009.63
2018-10-02T07:48:31.547Z,1009.63
2018-10-02T07:49:31.430Z,1009.59
2018-10-02T07:50:31.512Z,1009.55
2018-10-02T07:51:31.413Z,1009.57
2018-10-02T07:52:31.408Z,1009.54
2018-10-02T07:53:31.439Z,1009.55
2018-10-02T07:54:31.395Z,1009.51
2018-10-02T07:55:31.415Z,1009.59
2018-10-02T07:56:31.456Z,1009.54
2018-10-02T07:57:31.369Z,1009.47
2018-10-02T07:58:31.367Z,1009.43
2018-10-02T07:59:31.392Z,1009.41
2018-10-02T08:00:31.351Z,1009.44
2018-10-02T08:01:31.340Z,1009.38
2018-10-02T08:02:31.365Z,1009.42
2018-10-02T08:03:31.326Z,1009.42
2018-10-02T08:04:31.322Z,1009.47
2018-10-02T08:05:31.329Z,1009.37
2018-10-02T08:06:31.307Z,1009.40
2018-10-02T08:07:31.308Z,1009.31
2018-10-02T08:08:31.369Z,1009.30
2018-10-02T08:09:31.283Z,1009.33
2018-10-02T08:10:31.279Z,1009.35
2018-10-02T08:11:31.275Z,1009.35
2018-10-02T08:12:31.329Z,1009.39
2018-10-02T08:13:31.292Z,1009.37
2018-10-02T08:14:31.308Z,1009.35
2018-10-02T08:15:31.241Z,1009.41
2018-10-02T08:16:31.239Z,1009.33
2018-10-02T08:17:31.252Z,1009.39
2018-10-02T08:18:31.224Z,1009.34
2018-10-02T08:19:31.213Z,1009.31
2018-10-02T08:20:31.256Z,1009.28
2018-10-02T08:21:31.198Z,1009.27
2018-10-02T08:22:31.193Z,1009.36
2018-10-02T08:23:31.203Z,1009.25
2018-10-02T08:24:31.186Z,1009.33
2018-10-02T08:25:31.171Z,1009.28
2018-10-02T08:26:31.228Z,1009.32
2018-10-02T08:27:31.156Z,1009.32
2018-10-02T08:28:31.150Z,1009.22
2018-10-02T08:29:31.177Z,1009.23
2018-10-02T08:30:31.136Z,1009.19
2018-10-02T08:31:31.129Z,1009.19
2018-10-02T08:32:31.170Z,1009.20
2018-10-02T08:33:31.112Z,1009.09
2018-10-02T08:34:31.108Z,1009.13
2018-10-02T08:35:31.162Z,1009.10
2018-10-02T08:36:31.151Z,1009.14
2018-10-02T08:37:31.084Z,1009.12
2018-10-02T08:38:31.101Z,1009.11
2018-10-02T08:39:31.070Z,1009.03
2018-10-02T08:40:31.067Z,1009.03
2018-10-02T08:41:31.056Z,1008.98
2018-10-02T08:42:31.081Z,1008.94
2018-10-02T08:43:31.137Z,1009.04
2018-10-02T08:44:31.101Z,1009.08
2018-10-02T08:45:31.027Z,1008.97
2018-10-02T08:46:31.023Z,1009.03
2018-10-02T08:47:31.376Z,1009.09
2018-10-02T08:48:31.009Z,1009.09
2018-10-02T08:49:31.000Z,1009.07
2018-10-02T08:50:31.057Z,1009.07
2018-10-02T08:51:30.986Z,1008.98
2018-10-02T08:52:30.981Z,1009.02
2018-10-02T08:53:31.024Z,1008.94
2018-10-02T08:54:30.967Z,1009.02
2018-10-02T08:55:30.959Z,1008.98
2018-10-02T08:56:30.953Z,1008.80
2018-10-02T08:57:30.943Z,1008.91
2018-10-02T08:58:30.940Z,1008.88
2018-10-02T08:59:30.931Z,1008.84
2018-10-02T09:00:30.941Z,1008.89
2018-10-02T09:01:30.916Z,1008.93
2018-10-02T09:02:30.911Z,1008.99
2018-10-02T09:03:30.902Z,1008.99
2018-10-02T09:04:30.906Z,1008.95
2018-10-02T09:05:30.888Z,1008.94
2018-10-02T09:06:30.916Z,1008.96
2018-10-02T09:07:30.874Z,1008.93
2018-10-02T09:08:30.869Z,1008.91
2018-10-02T09:09:30.860Z,1008.93
2018-10-02T09:10:30.857Z,1009.04
2018-10-02T09:11:30.846Z,1009.02
2018-10-02T09:12:30.885Z,1009.02
2018-10-02T09:13:30.831Z,1008.92
2018-10-02T09:14:30.827Z,1008.94
2018-10-02T09:15:30.885Z,1009.03
2018-10-02T09:16:30.879Z,1008.97
2018-10-02T09:17:30.804Z,1008.93
2018-10-02T09:18:30.821Z,1008.91
2018-10-02T09:19:30.790Z,1008.82
2018-10-02T09:20:30.786Z,1008.81
2018-10-02T09:21:30.784Z,1008.80
2018-10-02T09:22:30.772Z,1008.82
2018-10-02T09:23:30.762Z,1008.70
2018-10-02T09:24:30.811Z,1008.65
2018-10-02T09:25:30.748Z,1008.70
2018-10-02T09:26:30.743Z,1008.72
2018-10-02T09:27:30.784Z,1008.68
2018-10-02T09:28:30.768Z,1008.71
2018-10-02T09:29:30.721Z,1008.69
2018-10-02T09:30:30.755Z,1008.67
2018-10-02T09:31:30.707Z,1008.68
2018-10-02T09:32:30.705Z,1008.63
2018-10-02T09:33:30.761Z,1008.65
2018-10-02T09:34:30.692Z,1008.55
2018-10-02T09:35:30.679Z,1008.66
2018-10-02T09:36:30.683Z,1008.71
2018-10-02T09:37:30.832Z,1008.61
2018-10-02T09:38:30.661Z,1008.58
2018-10-02T09:39:30.708Z,1008.58
2018-10-02T09:40:30.647Z,1008.57
2018-10-02T09:41:30.638Z,1008.62
2018-10-02T09:42:30.744Z,1008.68
2018-10-02T09:43:30.693Z,1008.61
2018-10-02T09:44:30.624Z,1008.61
2018-10-02T09:45:30.652Z,1008.58
2018-10-02T09:46:30.605Z,1008.60
2018-10-02T09:47:30.597Z,1008.63
2018-10-02T09:48:30.622Z,1008.55
2018-10-02T09:49:30.584Z,1008.54
2018-10-02T09:50:30.606Z,1008.55
2018-10-02T09:51:30.593Z,1008.59
2018-10-02T09:52:30.572Z,1008.55
2018-10-02T09:53:30.555Z,1008.63
2018-10-02T09:54:30.669Z,1008.58
2018-10-02T09:55:30.542Z,1008.60
2018-10-02T09:56:30.571Z,1008.56
2018-10-02T09:57:30.529Z,1008.53
2018-10-02T09:58:30.558Z,1008.57
2018-10-02T09:59:30.517Z,1008.51
2018-10-02T10:00:30.528Z,1008.54
2018-10-02T10:01:30.504Z,1008.48
2018-10-02T10:02:30.561Z,1008.53
2018-10-02T10:03:30.489Z,1008.58
2018-10-02T10:04:30.485Z,1008.55
2018-10-02T10:05:30.479Z,1008.48
2018-10-02T10:06:30.478Z,1008.50
2018-10-02T10:07:30.463Z,1008.50
2018-10-02T10:08:30.459Z,1008.61
2018-10-02T10:09:30.450Z,1008.53
2018-10-02T10:10:30.478Z,1008.52
2018-10-02T10:11:30.436Z,1008.56
2018-10-02T10:12:30.433Z,1008.47
2018-10-02T10:13:30.422Z,1008.52
2018-10-02T10:14:30.418Z,1008.49
2018-10-02T10:15:30.411Z,1008.56
2018-10-02T10:16:30.445Z,1008.55
2018-10-02T10:17:30.482Z,1008.57
2018-10-02T10:18:30.391Z,1008.61
2018-10-02T10:19:30.385Z,1008.59
2018-10-02T10:20:30.378Z,1008.61
2018-10-02T10:21:30.370Z,1008.59
2018-10-02T10:22:30.381Z,1008.50
2018-10-02T10:23:30.356Z,1008.49
2018-10-02T10:24:30.353Z,1008.61
2018-10-02T10:25:30.343Z,1008.67
2018-10-02T10:26:30.397Z,1008.65
2018-10-02T10:27:30.330Z,1008.50
2018-10-02T10:28:30.371Z,1008.63
2018-10-02T10:29:30.315Z,1008.56
2018-10-02T10:30:30.312Z,1008.63
2018-10-02T10:31:30.303Z,1008.64
2018-10-02T10:32:30.299Z,1008.65
2018-10-02T10:33:30.326Z,1008.65
2018-10-02T10:34:30.329Z,1008.64
2018-10-02T10:35:30.276Z,1008.62
2018-10-02T10:36:30.273Z,1008.66
2018-10-02T10:37:30.264Z,1008.66
2018-10-02T10:38:30.261Z,1008.59
2018-10-02T10:39:30.251Z,1008.53
2018-10-02T10:40:30.280Z,1008.55
2018-10-02T10:41:30.237Z,1008.60
2018-10-02T10:42:30.234Z,1008.58
2018-10-02T10:43:30.226Z,1008.60
2018-10-02T10:44:30.220Z,1008.55
2018-10-02T10:45:30.211Z,1008.59
2018-10-02T10:46:30.245Z,1008.48
2018-10-02T10:47:30.242Z,1008.50
2018-10-02T10:48:30.194Z,1008.38
2018-10-02T10:49:30.185Z,1008.47
2018-10-02T10:50:30.183Z,1008.50
2018-10-02T10:51:30.175Z,1008.56
2018-10-02T10:52:30.184Z,1008.72
2018-10-02T10:53:30.159Z,1008.55
2018-10-02T10:54:30.154Z,1008.48
2018-10-02T10:55:30.146Z,1008.42
2018-10-02T10:56:30.215Z,1008.40
2018-10-02T10:57:30.132Z,1008.34
2018-10-02T10:58:30.195Z,1008.35
2018-10-02T10:59:30.120Z,1008.34
2018-10-02T11:00:30.115Z,1008.39
2018-10-02T11:01:30.106Z,1008.39
2018-10-02T11:02:30.102Z,1008.42
2018-10-02T11:03:30.095Z,1008.44
2018-10-02T11:04:30.100Z,1008.44
2018-10-02T11:05:30.092Z,1008.40
2018-10-02T11:06:30.079Z,1008.33
2018-10-02T11:07:30.067Z,1008.29
2018-10-02T11:08:30.063Z,1008.31
2018-10-02T11:09:30.066Z,1008.33
2018-10-02T11:10:30.051Z,1008.33
2018-10-02T11:11:30.041Z,1008.30
2018-10-02T11:12:30.042Z,1008.37
2018-10-02T11:13:30.028Z,1008.36
2018-10-02T11:14:30.024Z,1008.34
2018-10-02T11:15:30.015Z,1008.31
2018-10-02T11:16:30.023Z,1008.32
2018-10-02T11:17:30.002Z,1008.24
2018-10-02T11:18:29.998Z,1008.19
2018-10-02T11:19:30.036Z,1008.21
2018-10-02T11:20:29.985Z,1008.16
2018-10-02T11:21:29.980Z,1008.14
2018-10-02T11:22:29.972Z,1008.16
2018-10-02T11:23:29.966Z,1008.11
2018-10-02T11:24:29.962Z,1008.19
2018-10-02T11:25:29.984Z,1008.08
2018-10-02T11:26:29.948Z,1008.11
2018-10-02T11:27:29.944Z,1008.05
2018-10-02T11:28:29.935Z,1008.15
2018-10-02T11:29:29.927Z,1008.12
2018-10-02T11:30:29.922Z,1008.10
2018-10-02T11:31:29.917Z,1008.12
2018-10-02T11:32:29.912Z,1008.13
2018-10-02T11:33:29.901Z,1008.15
2018-10-02T11:34:29.896Z,1008.12
2018-10-02T11:35:29.962Z,1008.11
2018-10-02T11:36:29.883Z,1008.16
2018-10-02T11:37:29.891Z,1008.06
2018-10-02T11:38:29.870Z,1008.13
2018-10-02T11:39:29.866Z,1008.07
2018-10-02T11:40:29.859Z,1008.03
2018-10-02T11:41:29.860Z,1008.01
2018-10-02T11:42:29.845Z,1008.00
2018-10-02T11:43:29.865Z,1008.04
2018-10-02T11:44:29.930Z,1008.01
2018-10-02T11:45:29.829Z,1008.01
2018-10-02T11:46:29.820Z,1008.02
2018-10-02T11:47:30.070Z,1007.94
2018-10-02T11:48:29.827Z,1007.93
2018-10-02T11:49:29.827Z,1007.97
2018-10-02T11:50:29.796Z,1007.92
2018-10-02T11:51:29.791Z,1007.94
2018-10-02T11:52:29.784Z,1007.90
2018-10-02T11:53:29.779Z,1007.89
2018-10-02T11:54:29.771Z,1007.91
2018-10-02T11:55:29.778Z,1007.89
2018-10-02T11:56:29.766Z,1007.95
2018-10-02T11:57:29.870Z,1007.83
2018-10-02T11:58:29.747Z,1007.87
2018-10-02T11:59:29.743Z,1007.84
2018-10-02T12:00:29.793Z,1007.87
2018-10-02T12:01:29.794Z,1007.79
2018-10-02T12:02:29.748Z,1007.76
2018-10-02T12:03:29.798Z,1007.76
2018-10-02T12:04:29.712Z,1007.81
2018-10-02T12:05:29.707Z,1007.77
2018-10-02T12:06:29.699Z,1007.84
2018-10-02T12:07:29.695Z,1007.77
2018-10-02T12:08:29.688Z,1007.75
2018-10-02T12:09:29.688Z,1007.83